Onchiota, New York
Current Conditions -  °F | °C
As of 11:51 PM on Saturday 25 Oct 2014 (Local Time) from KSLK Reporting Station
Broken Clouds Broken Clouds  
Wind Chill: 41°   Ceiling: 5500
Heat Index: 46°   Visibility: 10mi
Dew Point: 43°   Wind: 10mph
Humidity: 89%   Direction: 240°WSW
Pressure: 29.45"   Gusts: NA
Location:  44.5284°N, 74.0904°W
Report Text: KSLK 260351Z AUTO 24009KT 10SM FEW018 FEW037 BKN055 08/06 A2945 RMK AO2 SLP977 T00780061
Loading
Personal Weather Stations






























Interactive Weather Map
Tropical Storm Tracking
New forecast layout! Learn more

10-Day Weather Forecast

Advertisements
Track Severe Weather on mobile